Time,TemperatureF,DewpointF,PressureIn,WindDirection,WindDirectionDegrees,WindSpeedMPH,WindSpeedGustMPH,Humidity,HourlyPrecipIn,Conditions,Clouds,dailyrainin,SoftwareType,DateUTC
2013-08-10 00:07:00,66.2,59.5,30.17,NE,45,0.0,-999.0,79,-99.99,,,0.00,Acu-Link.com,2013-08-10 05:07:00,
2013-08-10 00:22:00,65.8,59.1,30.17,NNW,337,2.2,-999.0,79,-99.99,,,0.00,Acu-Link.com,2013-08-10 05:22:00,
2013-08-10 00:37:00,65.8,59.1,30.17,NNW,337,0.0,-999.0,79,-99.99,,,0.00,Acu-Link.com,2013-08-10 05:37:00,
2013-08-10 00:53:00,65.3,59.0,30.17,NE,45,2.2,-999.0,80,-99.99,,,0.00,Acu-Link.com,2013-08-10 05:53:00,
2013-08-10 01:08:00,65.1,58.8,30.18,NNW,337,0.0,-999.0,80,-99.99,,,0.00,Acu-Link.com,2013-08-10 06:08:00,
2013-08-10 01:23:00,64.9,58.9,30.18,NNE,22,0.0,-999.0,81,-99.99,,,0.00,Acu-Link.com,2013-08-10 06:23:00,
2013-08-10 01:38:00,64.9,59.3,30.18,NNE,22,2.2,-999.0,82,-99.99,,,0.00,Acu-Link.com,2013-08-10 06:38:00,
2013-08-10 01:53:00,64.8,59.5,30.18,NE,45,2.2,-999.0,83,-99.99,,,0.00,Acu-Link.com,2013-08-10 06:53:00,
2013-08-10 02:09:00,64.4,59.5,30.18,ENE,67,0.0,-999.0,84,-99.99,,,0.00,Acu-Link.com,2013-08-10 07:09:00,
2013-08-10 02:24:00,63.7,59.1,30.18,NE,45,1.1,-999.0,85,-99.99,,,0.00,Acu-Link.com,2013-08-10 07:24:00,
2013-08-10 02:39:00,63.3,59.0,30.18,NNE,22,1.1,-999.0,86,-99.99,,,0.00,Acu-Link.com,2013-08-10 07:39:00,
2013-08-10 02:54:00,62.8,59.2,30.18,East,90,0.0,-999.0,88,-99.99,,,0.00,Acu-Link.com,2013-08-10 07:54:00,
2013-08-10 03:11:00,62.4,59.1,30.18,North,0,0.0,-999.0,89,-99.99,,,0.00,Acu-Link.com,2013-08-10 08:11:00,
2013-08-10 03:27:00,62.1,58.8,30.19,South,180,0.0,-999.0,89,-99.99,,,0.00,Acu-Link.com,2013-08-10 08:27:00,
2013-08-10 03:42:00,61.9,58.9,30.18,West,270,0.0,-999.0,90,-99.99,,,0.00,Acu-Link.com,2013-08-10 08:42:00,
2013-08-10 03:57:00,61.2,58.9,30.19,ENE,67,0.0,-999.0,92,-99.99,,,0.00,Acu-Link.com,2013-08-10 08:57:00,
2013-08-10 04:12:00,61.0,59.0,30.19,WNW,292,0.0,-999.0,93,-99.99,,,0.00,Acu-Link.com,2013-08-10 09:12:00,
2013-08-10 04:27:00,60.8,59.4,30.18,South,180,0.0,-999.0,95,-99.99,,,0.00,Acu-Link.com,2013-08-10 09:27:00,
2013-08-10 04:42:00,60.6,58.9,30.19,South,180,0.0,-999.0,94,-99.99,,,0.00,Acu-Link.com,2013-08-10 09:42:00,
2013-08-10 04:58:00,60.3,59.4,30.18,NNW,337,0.0,-999.0,97,-99.99,,,0.00,Acu-Link.com,2013-08-10 09:58:00,
2013-08-10 05:13:00,60.1,59.2,30.19,West,270,0.0,-999.0,97,-99.99,,,0.00,Acu-Link.com,2013-08-10 10:13:00,
2013-08-10 05:28:00,59.9,59.0,30.19,NW,315,0.0,-999.0,97,-99.99,,,0.00,Acu-Link.com,2013-08-10 10:28:00,
2013-08-10 05:43:00,59.7,59.1,30.19,SSE,157,0.0,-999.0,98,-99.99,,,0.00,Acu-Link.com,2013-08-10 10:43:00,
2013-08-10 05:58:00,59.4,58.5,30.19,SSE,157,0.0,-999.0,97,-99.99,,,0.00,Acu-Link.com,2013-08-10 10:58:00,
2013-08-10 06:14:00,59.0,58.4,30.19,South,180,0.0,-999.0,98,-99.99,,,0.00,Acu-Link.com,2013-08-10 11:14:00,
2013-08-10 06:29:00,58.8,58.5,30.19,ESE,112,0.0,-999.0,99,-99.99,,,0.00,Acu-Link.com,2013-08-10 11:29:00,
2013-08-10 06:44:00,58.8,58.5,30.19,ESE,112,0.0,-999.0,99,-99.99,,,0.00,Acu-Link.com,2013-08-10 11:44:00,
2013-08-10 06:59:00,60.4,60.1,30.20,NNE,22,0.0,-999.0,99,-99.99,,,0.00,Acu-Link.com,2013-08-10 11:59:00,
2013-08-10 07:14:00,63.1,61.6,30.20,ESE,112,0.0,-999.0,95,-99.99,,,0.00,Acu-Link.com,2013-08-10 12:14:00,
2013-08-10 07:30:00,66.0,61.0,30.20,NE,45,3.2,-999.0,84,-99.99,,,0.00,Acu-Link.com,2013-08-10 12:30:00,
2013-08-10 07:45:00,68.4,60.9,30.20,North,0,3.2,-999.0,77,-99.99,,,0.00,Acu-Link.com,2013-08-10 12:45:00,
2013-08-10 08:00:00,70.0,60.5,30.20,ESE,112,3.2,-999.0,72,-99.99,,,0.00,Acu-Link.com,2013-08-10 13:00:00,
2013-08-10 08:15:00,71.1,61.2,30.21,East,90,3.2,-999.0,71,-99.99,,,0.00,Acu-Link.com,2013-08-10 13:15:00,
2013-08-10 08:30:00,74.3,61.3,30.20,NNE,22,3.2,-999.0,64,-99.99,,,0.00,Acu-Link.com,2013-08-10 13:30:00,
2013-08-10 08:46:00,76.5,62.0,30.21,East,90,2.2,-999.0,61,-99.99,,,0.00,Acu-Link.com,2013-08-10 13:46:00,
2013-08-10 09:01:00,78.6,63.5,30.21,NNE,22,1.7,-999.0,60,-99.99,,,0.00,Acu-Link.com,2013-08-10 14:01:00,
2013-08-10 09:16:00,79.0,63.4,30.22,ESE,112,3.7,-999.0,59,-99.99,,,0.00,Acu-Link.com,2013-08-10 14:16:00,
2013-08-10 09:31:00,80.2,62.5,30.23,SE,135,3.7,-999.0,55,-99.99,,,0.00,Acu-Link.com,2013-08-10 14:31:00,
2013-08-10 09:46:00,81.5,62.7,30.23,ESE,112,5.3,-999.0,53,-99.99,,,0.00,Acu-Link.com,2013-08-10 14:46:00,
2013-08-10 10:02:00,80.8,61.5,30.23,ESE,112,5.8,-999.0,52,-99.99,,,0.00,Acu-Link.com,2013-08-10 15:02:00,
2013-08-10 10:17:00,82.4,63.0,30.23,ESE,112,5.3,-999.0,52,-99.99,,,0.00,Acu-Link.com,2013-08-10 15:17:00,
2013-08-10 10:32:00,82.0,61.5,30.24,South,180,3.2,-999.0,50,-99.99,,,0.00,Acu-Link.com,2013-08-10 15:32:00,
2013-08-10 10:47:00,80.8,62.6,30.23,SSE,157,3.2,-999.0,54,-99.99,,,0.00,Acu-Link.com,2013-08-10 15:47:00,
2013-08-10 11:03:00,81.0,62.2,30.24,South,180,5.8,-999.0,53,-99.99,,,0.00,Acu-Link.com,2013-08-10 16:03:00,
2013-08-10 11:18:00,83.3,62.7,30.24,ESE,112,3.7,-999.0,50,-99.99,,,0.00,Acu-Link.com,2013-08-10 16:18:00,
2013-08-10 11:33:00,83.5,62.9,30.24,SW,225,6.8,-999.0,50,-99.99,,,0.00,Acu-Link.com,2013-08-10 16:33:00,
2013-08-10 11:48:00,86.9,63.6,30.23,SSE,157,3.2,-999.0,46,-99.99,,,0.00,Acu-Link.com,2013-08-10 16:48:00,
2013-08-10 12:03:00,87.4,63.4,30.23,South,180,4.7,-999.0,45,-99.99,,,0.00,Acu-Link.com,2013-08-10 17:03:00,
2013-08-10 12:19:00,84.7,63.4,30.23,ESE,112,7.3,-999.0,49,-99.99,,,0.00,Acu-Link.com,2013-08-10 17:19:00,
2013-08-10 12:34:00,88.0,64.6,30.22,South,180,4.2,-999.0,46,-99.99,,,0.00,Acu-Link.com,2013-08-10 17:34:00,
2013-08-10 12:49:00,85.8,62.6,30.21,South,180,7.3,-999.0,46,-99.99,,,0.00,Acu-Link.com,2013-08-10 17:49:00,
2013-08-10 13:04:00,87.6,63.6,30.21,WSW,247,3.7,-999.0,45,-99.99,,,0.00,Acu-Link.com,2013-08-10 18:04:00,
2013-08-10 13:20:00,84.9,62.4,30.21,SSW,202,4.7,-999.0,47,-99.99,,,0.00,Acu-Link.com,2013-08-10 18:20:00,
2013-08-10 13:35:00,85.6,62.4,30.21,SSE,157,3.7,-999.0,46,-99.99,,,0.00,Acu-Link.com,2013-08-10 18:35:00,
2013-08-10 13:50:00,85.5,62.3,30.20,South,180,7.3,-999.0,46,-99.99,,,0.00,Acu-Link.com,2013-08-10 18:50:00,
2013-08-10 14:05:00,86.0,60.9,30.20,ESE,112,4.7,-999.0,43,-99.99,,,0.00,Acu-Link.com,2013-08-10 19:05:00,
2013-08-10 14:21:00,89.2,62.4,30.19,SE,135,5.3,-999.0,41,-99.99,,,0.00,Acu-Link.com,2013-08-10 19:21:00,
2013-08-10 14:36:00,90.5,62.1,30.19,SSW,202,6.8,-999.0,39,-99.99,,,0.00,Acu-Link.com,2013-08-10 19:36:00,
2013-08-10 14:51:00,87.6,61.6,30.19,SW,225,2.2,-999.0,42,-99.99,,,0.00,Acu-Link.com,2013-08-10 19:51:00,
2013-08-10 15:06:00,90.0,63.1,30.19,SSW,202,1.7,-999.0,41,-99.99,,,0.00,Acu-Link.com,2013-08-10 20:06:00,
2013-08-10 15:21:00,88.7,62.6,30.18,SSE,157,2.2,-999.0,42,-99.99,,,0.00,Acu-Link.com,2013-08-10 20:21:00,
2013-08-10 15:37:00,90.0,62.4,30.18,SSE,157,4.2,-999.0,40,-99.99,,,0.00,Acu-Link.com,2013-08-10 20:37:00,
2013-08-10 15:52:00,89.6,62.7,30.17,SW,225,3.2,-999.0,41,-99.99,,,0.00,Acu-Link.com,2013-08-10 20:52:00,
2013-08-10 16:07:00,89.8,62.9,30.16,West,270,3.7,-999.0,41,-99.99,,,0.00,Acu-Link.com,2013-08-10 21:07:00,
2013-08-10 16:22:00,88.7,61.2,30.15,West,270,5.3,-999.0,40,-99.99,,,0.00,Acu-Link.com,2013-08-10 21:22:00,
2013-08-10 16:37:00,88.3,60.9,30.15,South,180,6.8,-999.0,40,-99.99,,,0.00,Acu-Link.com,2013-08-10 21:37:00,
2013-08-10 16:53:00,86.9,61.7,30.15,East,90,5.3,-999.0,43,-99.99,,,0.00,Acu-Link.com,2013-08-10 21:53:00,
2013-08-10 17:08:00,86.5,60.6,30.15,SW,225,5.8,-999.0,42,-99.99,,,0.00,Acu-Link.com,2013-08-10 22:08:00,
2013-08-10 17:23:00,85.1,61.3,30.14,SSE,157,4.2,-999.0,45,-99.99,,,0.00,Acu-Link.com,2013-08-10 22:23:00,
2013-08-10 17:38:00,82.2,60.5,30.13,SW,225,4.7,-999.0,48,-99.99,,,0.00,Acu-Link.com,2013-08-10 22:38:00,
2013-08-10 17:54:00,80.8,61.0,30.13,SSE,157,4.7,-999.0,51,-99.99,,,0.00,Acu-Link.com,2013-08-10 22:54:00,
2013-08-10 18:09:00,80.1,60.9,30.13,SSE,157,4.7,-999.0,52,-99.99,,,0.00,Acu-Link.com,2013-08-10 23:09:00,
2013-08-10 18:24:00,79.3,61.7,30.13,South,180,4.2,-999.0,55,-99.99,,,0.00,Acu-Link.com,2013-08-10 23:24:00,
2013-08-10 18:39:00,78.8,61.8,30.13,SSE,157,3.2,-999.0,56,-99.99,,,0.00,Acu-Link.com,2013-08-10 23:39:00,
2013-08-10 18:55:00,80.8,62.0,30.12,SE,135,1.7,-999.0,53,-99.99,,,0.00,Acu-Link.com,2013-08-10 23:55:00,
2013-08-10 19:10:00,80.2,62.5,30.12,South,180,1.7,-999.0,55,-99.99,,,0.00,Acu-Link.com,2013-08-11 00:10:00,
2013-08-10 19:25:00,78.4,61.9,30.11,South,180,0.0,-999.0,57,-99.99,,,0.00,Acu-Link.com,2013-08-11 00:25:00,
2013-08-10 19:40:00,77.2,62.2,30.12,South,180,0.0,-999.0,60,-99.99,,,0.00,Acu-Link.com,2013-08-11 00:40:00,
2013-08-10 19:56:00,75.7,62.2,30.12,South,180,0.0,-999.0,63,-99.99,,,0.00,Acu-Link.com,2013-08-11 00:56:00,
2013-08-10 20:11:00,74.5,62.8,30.11,SW,225,1.1,-999.0,67,-99.99,,,0.00,Acu-Link.com,2013-08-11 01:11:00,
2013-08-10 20:26:00,73.4,62.6,30.11,South,180,0.0,-999.0,69,-99.99,,,0.00,Acu-Link.com,2013-08-11 01:26:00,
2013-08-10 20:41:00,72.3,62.4,30.11,SSW,202,1.7,-999.0,71,-99.99,,,0.00,Acu-Link.com,2013-08-11 01:41:00,
2013-08-10 20:56:00,71.6,62.1,30.11,SSW,202,3.2,-999.0,72,-99.99,,,0.00,Acu-Link.com,2013-08-11 01:56:00,
2013-08-10 21:12:00,71.1,61.6,30.11,South,180,3.2,-999.0,72,-99.99,,,0.00,Acu-Link.com,2013-08-11 02:12:00,
2013-08-10 21:27:00,70.7,60.8,30.12,South,180,3.2,-999.0,71,-99.99,,,0.00,Acu-Link.com,2013-08-11 02:27:00,
2013-08-10 21:42:00,70.5,60.6,30.12,SSW,202,3.2,-999.0,71,-99.99,,,0.00,Acu-Link.com,2013-08-11 02:42:00,
2013-08-10 21:57:00,70.0,60.5,30.13,South,180,2.2,-999.0,72,-99.99,,,0.00,Acu-Link.com,2013-08-11 02:57:00,
2013-08-10 22:12:00,69.6,60.6,30.13,South,180,3.2,-999.0,73,-99.99,,,0.00,Acu-Link.com,2013-08-11 03:12:00,
2013-08-10 22:28:00,69.4,60.4,30.13,SSE,157,3.7,-999.0,73,-99.99,,,0.00,Acu-Link.com,2013-08-11 03:28:00,
2013-08-10 22:43:00,68.7,60.4,30.13,South,180,2.7,-999.0,75,-99.99,,,0.00,Acu-Link.com,2013-08-11 03:43:00,
2013-08-10 22:58:00,68.9,60.6,30.12,SSW,202,4.2,-999.0,75,-99.99,,,0.00,Acu-Link.com,2013-08-11 03:58:00,
2013-08-10 23:13:00,69.1,60.8,30.12,South,180,3.7,-999.0,75,-99.99,,,0.00,Acu-Link.com,2013-08-11 04:13:00,
2013-08-10 23:28:00,68.9,60.6,30.12,South,180,3.7,-999.0,75,-99.99,,,0.00,Acu-Link.com,2013-08-11 04:28:00,
2013-08-10 23:44:00,68.7,60.8,30.13,SSW,202,3.2,-999.0,76,-99.99,,,0.00,Acu-Link.com,2013-08-11 04:44:00,
2013-08-10 23:59:00,68.2,60.7,30.13,SW,225,3.2,-999.0,77,-99.99,,,0.00,Acu-Link.com,2013-08-11 04:59:00,